createdAt,value
2019-04-23T00:01:23.244Z,15.80
2019-04-23T00:03:45.759Z,15.80
2019-04-23T00:06:21.773Z,15.70
2019-04-23T00:08:48.989Z,15.70
2019-04-23T00:11:21.840Z,15.60
2019-04-23T00:16:21.940Z,15.60
2019-04-23T00:24:23.758Z,15.60
2019-04-23T00:26:36.636Z,15.60
2019-04-23T00:29:08.682Z,15.60
2019-04-23T00:31:44.290Z,15.50
2019-04-23T00:34:01.080Z,15.40
2019-04-23T00:36:44.299Z,15.30
2019-04-23T00:39:18.785Z,15.30
2019-04-23T00:41:36.624Z,15.20
2019-04-23T00:51:32.050Z,15.30
2019-04-23T00:53:56.751Z,15.40
2019-04-23T00:56:40.261Z,15.50
2019-04-23T00:59:02.733Z,15.40
2019-04-23T01:01:41.291Z,15.30
2019-04-23T01:04:10.238Z,15.20
2019-04-23T01:06:29.118Z,15.20
2019-04-23T01:09:02.154Z,15.20
2019-04-23T01:14:01.109Z,15.30
2019-04-23T01:16:33.229Z,15.30
2019-04-23T01:19:24.423Z,15.30
2019-04-23T01:21:35.040Z,15.20
2019-04-23T01:24:17.733Z,15.10
2019-04-23T01:27:39.676Z,15.10
2019-04-23T01:30:05.082Z,15.10
2019-04-23T01:32:32.079Z,15.10
2019-04-23T01:35:09.688Z,15.00
2019-04-23T01:37:31.790Z,15.00
2019-04-23T01:39:57.684Z,15.00
2019-04-23T01:42:35.979Z,15.00
2019-04-23T01:45:11.648Z,15.00
2019-04-23T01:47:31.731Z,15.00
2019-04-23T01:50:08.276Z,15.10
2019-04-23T01:52:38.096Z,15.00
2019-04-23T01:55:10.006Z,14.90
2019-04-23T01:57:42.281Z,14.90
2019-04-23T02:00:11.642Z,14.80
2019-04-23T02:05:09.839Z,14.60
2019-04-23T02:07:45.650Z,14.70
2019-04-23T02:10:17.059Z,14.60
2019-04-23T02:12:43.394Z,14.50
2019-04-23T02:15:12.231Z,14.40
2019-04-23T02:17:36.249Z,14.20
2019-04-23T02:20:14.170Z,14.10
2019-04-23T02:22:51.863Z,14.00
2019-04-23T02:25:24.878Z,13.90
2019-04-23T02:27:58.225Z,13.80
2019-04-23T02:30:49.381Z,13.70
2019-04-23T02:32:59.386Z,13.40
2019-04-23T02:38:00.847Z,13.20
2019-04-23T02:40:26.667Z,13.10
2019-04-23T02:48:08.921Z,12.60
2019-04-23T02:52:56.184Z,12.40
2019-04-23T02:55:31.142Z,12.30
2019-04-23T02:57:50.353Z,12.20
2019-04-23T03:00:27.763Z,12.10
2019-04-23T03:02:59.123Z,12.20
2019-04-23T03:05:31.958Z,12.10
2019-04-23T03:07:54.256Z,12.20
2019-04-23T03:10:23.008Z,12.20
2019-04-23T03:13:07.408Z,12.10
2019-04-23T03:16:08.506Z,12.10
2019-04-23T03:18:35.305Z,12.00
2019-04-23T03:21:05.953Z,12.00
2019-04-23T03:26:25.201Z,12.00
2019-04-23T03:28:57.025Z,12.00
2019-04-23T03:38:51.928Z,11.80
2019-04-23T03:41:21.037Z,11.70
2019-04-23T03:43:41.188Z,11.70
2019-04-23T03:46:24.524Z,11.70
2019-04-23T03:48:47.208Z,11.70
2019-04-23T03:51:20.351Z,11.70
2019-04-23T03:56:24.159Z,11.50
2019-04-23T03:58:46.990Z,11.50
2019-04-23T04:01:22.799Z,11.50
2019-04-23T04:06:23.837Z,11.60
2019-04-23T04:08:58.535Z,11.60
2019-04-23T04:11:25.088Z,11.70
2019-04-23T04:16:21.846Z,11.70
2019-04-23T04:23:51.325Z,11.90
2019-04-23T04:26:22.687Z,11.90
2019-04-23T04:28:54.089Z,12.00
2019-04-23T04:31:26.174Z,12.00
2019-04-23T04:41:25.494Z,12.00
2019-04-23T04:44:05.465Z,12.00
2019-04-23T04:46:30.503Z,12.00
2019-04-23T04:51:27.110Z,12.20
2019-04-23T04:54:01.123Z,12.30
2019-04-23T04:56:40.480Z,12.40
2019-04-23T04:58:59.616Z,12.40
2019-04-23T05:03:43.259Z,12.50
2019-04-23T05:06:22.075Z,12.40
2019-04-23T05:08:58.416Z,12.40
2019-04-23T05:11:26.729Z,12.40
2019-04-23T05:13:55.355Z,12.50
2019-04-23T05:16:23.812Z,12.50
2019-04-23T05:19:08.565Z,12.50
2019-04-23T05:21:35.718Z,12.40
2019-04-23T05:24:00.877Z,12.40
2019-04-23T05:26:20.966Z,12.40
2019-04-23T05:33:59.900Z,12.50
2019-04-23T05:39:07.699Z,12.50
2019-04-23T05:44:05.125Z,12.70
2019-04-23T05:46:42.210Z,12.70
2019-04-23T05:49:02.755Z,12.70
2019-04-23T05:51:44.569Z,12.80
2019-04-23T05:53:58.267Z,12.80
2019-04-23T05:56:27.743Z,12.90
2019-04-23T05:58:58.079Z,12.90
2019-04-23T06:01:49.329Z,13.00
2019-04-23T06:06:37.547Z,13.00
2019-04-23T06:09:03.569Z,13.20
2019-04-23T06:11:39.569Z,13.30
2019-04-23T06:14:06.343Z,13.30
2019-04-23T06:16:35.627Z,13.50
2019-04-23T06:19:07.107Z,13.50
2019-04-23T06:21:52.914Z,13.60
2019-04-23T06:24:09.993Z,13.80
2019-04-23T06:26:40.070Z,13.90
2019-04-23T06:29:05.010Z,14.00
2019-04-23T06:31:41.493Z,14.00
2019-04-23T06:34:13.557Z,14.00
2019-04-23T06:36:34.339Z,14.10
2019-04-23T06:41:37.541Z,14.10
2019-04-23T06:44:14.499Z,14.10
2019-04-23T06:46:44.647Z,14.10
2019-04-23T06:49:11.158Z,14.20
2019-04-23T06:51:46.495Z,14.30
2019-04-23T06:54:12.279Z,14.40
2019-04-23T06:56:44.763Z,14.50
2019-04-23T06:59:12.034Z,14.60
2019-04-23T07:01:51.164Z,14.60
2019-04-23T07:04:15.151Z,14.60
2019-04-23T07:06:46.841Z,14.70
2019-04-23T07:11:40.219Z,14.80
2019-04-23T07:14:02.476Z,14.80
2019-04-23T07:16:38.465Z,14.80
2019-04-23T07:19:18.396Z,14.90
2019-04-23T07:21:41.832Z,14.90
2019-04-23T07:24:16.506Z,14.90
2019-04-23T07:29:18.936Z,15.00
2019-04-23T07:31:50.041Z,15.00
2019-04-23T07:34:15.662Z,15.00
2019-04-23T07:36:41.136Z,15.00
2019-04-23T07:39:23.347Z,15.10
2019-04-23T07:42:16.841Z,15.10
2019-04-23T07:47:51.966Z,15.30
2019-04-23T07:50:26.187Z,15.30
2019-04-23T07:52:57.600Z,15.30
2019-04-23T07:55:31.009Z,15.40
2019-04-23T07:57:57.037Z,15.40
2019-04-23T08:00:22.946Z,15.40
2019-04-23T08:02:43.521Z,15.40
2019-04-23T08:07:49.737Z,15.50
2019-04-23T08:10:16.751Z,15.50
2019-04-23T08:12:47.062Z,15.50
2019-04-23T08:15:23.019Z,15.60
2019-04-23T08:17:45.075Z,15.60
2019-04-23T08:20:23.056Z,15.70
2019-04-23T08:22:49.537Z,15.80
2019-04-23T08:25:19.334Z,15.80
2019-04-23T08:27:49.977Z,15.90
2019-04-23T08:30:19.675Z,16.00
2019-04-23T08:32:54.280Z,16.10
2019-04-23T08:35:19.956Z,16.20
2019-04-23T08:38:02.666Z,16.20
2019-04-23T08:42:58.169Z,16.30
2019-04-23T08:48:29.062Z,16.50
2019-04-23T08:55:53.725Z,16.70
2019-04-23T08:58:22.477Z,16.70
2019-04-23T09:00:55.322Z,16.80
2019-04-23T09:05:54.331Z,17.00
2019-04-23T09:08:21.828Z,17.10
2019-04-23T09:10:58.095Z,17.20
2019-04-23T09:15:51.105Z,17.20
2019-04-23T09:18:22.947Z,17.20
2019-04-23T09:20:41.434Z,17.30
2019-04-23T09:23:28.290Z,17.40
2019-04-23T09:28:27.538Z,17.60
2019-04-23T09:30:57.413Z,17.60
2019-04-23T09:33:36.231Z,17.70
2019-04-23T09:36:18.436Z,17.80
2019-04-23T09:38:46.766Z,17.90
2019-04-23T09:41:27.671Z,17.90
2019-04-23T09:44:14.497Z,18.10
2019-04-23T09:46:40.524Z,18.20
2019-04-23T09:51:35.834Z,18.30
2019-04-23T09:54:09.186Z,18.40
2019-04-23T09:59:15.693Z,18.60
2019-04-23T10:01:29.119Z,18.70
2019-04-23T10:03:57.053Z,18.70
2019-04-23T10:06:20.284Z,18.80
2019-04-23T10:08:49.049Z,18.80
2019-04-23T10:11:13.607Z,18.80
2019-04-23T10:13:42.805Z,18.90
2019-04-23T10:16:15.618Z,18.90
2019-04-23T10:18:41.718Z,19.00
2019-04-23T10:21:11.281Z,18.90
2019-04-23T10:23:41.247Z,18.80
2019-04-23T10:26:10.137Z,18.70
2019-04-23T10:28:47.666Z,18.80
2019-04-23T10:31:16.747Z,18.80
2019-04-23T10:33:46.158Z,18.80
2019-04-23T10:36:19.073Z,18.90
2019-04-23T10:38:54.319Z,19.00
2019-04-23T10:41:16.070Z,19.00
2019-04-23T10:43:48.803Z,19.00
2019-04-23T10:46:43.365Z,19.10
2019-04-23T10:54:28.666Z,19.20
2019-04-23T10:56:59.780Z,19.30
2019-04-23T11:02:29.212Z,19.40
2019-04-23T11:05:00.451Z,19.40
2019-04-23T11:07:27.183Z,19.40
2019-04-23T11:18:07.228Z,19.70
2019-04-23T11:20:27.404Z,19.70
2019-04-23T11:25:26.310Z,19.80
2019-04-23T11:27:53.902Z,19.80
2019-04-23T11:30:27.435Z,19.80
2019-04-23T11:32:54.291Z,19.80
2019-04-23T11:35:31.057Z,19.80
2019-04-23T11:40:23.242Z,19.80
2019-04-23T11:42:59.618Z,19.80
2019-04-23T11:45:50.676Z,19.80
2019-04-23T11:50:27.819Z,20.00
2019-04-23T11:53:01.077Z,19.90
2019-04-23T11:55:32.727Z,20.10
2019-04-23T11:58:02.732Z,20.10
2019-04-23T12:00:33.677Z,20.10
2019-04-23T12:02:51.154Z,20.10
2019-04-23T12:05:41.452Z,20.10
2019-04-23T12:07:57.663Z,20.10
2019-04-23T12:10:43.711Z,20.10
2019-04-23T12:13:10.540Z,20.10
2019-04-23T12:15:32.132Z,20.10
2019-04-23T12:18:05.469Z,20.10
2019-04-23T12:23:18.174Z,20.20
2019-04-23T12:25:31.246Z,20.20
2019-04-23T12:27:50.458Z,20.30
2019-04-23T12:35:36.876Z,20.40
2019-04-23T12:45:35.524Z,20.50
2019-04-23T12:50:50.077Z,20.60
2019-04-23T12:53:23.682Z,20.70
2019-04-23T12:58:15.700Z,20.90
2019-04-23T13:00:38.963Z,20.90
2019-04-23T13:03:16.927Z,21.00
2019-04-23T13:05:53.046Z,21.10
2019-04-23T13:10:47.967Z,21.40
2019-04-23T13:16:02.845Z,21.50
2019-04-23T13:18:19.601Z,21.60
2019-04-23T13:25:57.046Z,21.90
2019-04-23T13:28:35.490Z,22.10
2019-04-23T13:31:08.397Z,22.20
2019-04-23T13:33:42.106Z,22.30
2019-04-23T13:38:38.277Z,22.50
2019-04-23T13:41:09.085Z,22.60
2019-04-23T13:48:27.645Z,22.90
2019-04-23T13:51:07.243Z,22.80
2019-04-23T13:53:39.410Z,22.70
2019-04-23T13:56:15.330Z,22.60
2019-04-23T13:58:34.450Z,22.60
2019-04-23T14:03:40.836Z,23.00
2019-04-23T14:06:18.147Z,23.10
2019-04-23T14:08:47.008Z,23.20
2019-04-23T14:16:22.763Z,23.40
2019-04-23T14:18:58.000Z,23.50
2019-04-23T14:31:17.227Z,24.10
2019-04-23T14:33:58.408Z,24.10
2019-04-23T14:36:19.372Z,24.10
2019-04-23T14:38:49.222Z,24.00
2019-04-23T14:41:23.536Z,23.90
2019-04-23T14:43:56.070Z,24.00
2019-04-23T14:48:56.968Z,23.80
2019-04-23T14:51:32.090Z,23.70
2019-04-23T14:54:03.463Z,23.70
2019-04-23T14:56:29.824Z,23.60
2019-04-23T14:59:07.198Z,23.80
2019-04-23T15:06:41.131Z,24.90
2019-04-23T15:09:07.429Z,25.50
2019-04-23T15:13:53.846Z,25.30
2019-04-23T15:16:33.412Z,25.10
2019-04-23T15:24:06.971Z,24.30
2019-04-23T15:27:23.027Z,24.10
2019-04-23T15:28:43.729Z,23.90
2019-04-23T15:31:33.080Z,23.80
2019-04-23T15:39:11.610Z,23.70
2019-04-23T15:41:45.096Z,23.80
2019-04-23T15:46:40.976Z,23.90
2019-04-23T15:51:35.799Z,23.80
2019-04-23T15:54:14.098Z,23.70
2019-04-23T15:56:41.460Z,23.70
2019-04-23T16:01:34.060Z,23.70
2019-04-23T16:03:39.634Z,23.70
2019-04-23T16:06:10.692Z,23.80
2019-04-23T16:16:47.769Z,23.70
2019-04-23T16:19:13.698Z,23.70
2019-04-23T16:22:01.931Z,23.80
2019-04-23T16:24:17.625Z,23.80
2019-04-23T16:26:51.027Z,23.90
2019-04-23T16:29:32.887Z,23.90
2019-04-23T16:31:50.854Z,23.90
2019-04-23T16:34:23.899Z,23.90
2019-04-23T16:36:54.661Z,23.80
2019-04-23T16:39:16.908Z,23.70
2019-04-23T16:46:56.288Z,23.60
2019-04-23T16:51:48.876Z,23.40
2019-04-23T16:54:26.747Z,23.40
2019-04-23T17:02:03.551Z,23.10
2019-04-23T17:04:27.628Z,23.00
2019-04-23T17:06:53.417Z,22.90
2019-04-23T17:09:34.123Z,22.90
2019-04-23T17:12:03.079Z,22.80
2019-04-23T17:14:23.204Z,22.70
2019-04-23T17:16:49.618Z,22.60
2019-04-23T17:19:29.422Z,22.40
2019-04-23T17:21:59.815Z,22.40
2019-04-23T17:24:23.314Z,22.30
2019-04-23T17:26:57.389Z,22.30
2019-04-23T17:31:49.092Z,22.20
2019-04-23T17:34:32.183Z,22.10
2019-04-23T17:37:13.131Z,22.00
2019-04-23T17:39:55.027Z,21.90
2019-04-23T17:42:30.664Z,21.70
2019-04-23T17:47:37.270Z,21.60
2019-04-23T17:50:05.617Z,21.50
2019-04-23T17:52:34.942Z,21.40
2019-04-23T17:55:10.209Z,21.30
2019-04-23T17:57:39.380Z,21.10
2019-04-23T18:00:17.957Z,21.00
2019-04-23T18:05:09.836Z,20.70
2019-04-23T18:07:44.867Z,20.50
2019-04-23T18:15:04.903Z,19.60
2019-04-23T18:20:12.436Z,18.80
2019-04-23T18:23:00.323Z,18.50
2019-04-23T18:30:17.751Z,18.10
2019-04-23T18:33:44.660Z,17.90
2019-04-23T18:40:57.795Z,17.40
2019-04-23T18:43:13.768Z,17.30
2019-04-23T18:45:46.681Z,17.10
2019-04-23T18:51:03.477Z,16.80
2019-04-23T18:56:06.896Z,16.40
2019-04-23T18:58:47.169Z,16.20
2019-04-23T19:01:20.009Z,16.20
2019-04-23T19:09:22.452Z,16.00
2019-04-23T19:11:58.215Z,15.90
2019-04-23T19:14:35.896Z,15.90
2019-04-23T19:17:09.074Z,15.70
2019-04-23T19:19:29.664Z,15.50
2019-04-23T19:24:28.545Z,15.40
2019-04-23T19:29:30.662Z,15.10
2019-04-23T19:31:56.762Z,14.90
2019-04-23T19:34:35.606Z,14.80
2019-04-23T19:37:01.326Z,14.70
2019-04-23T19:39:33.782Z,14.70
2019-04-23T19:47:23.345Z,14.70
2019-04-23T19:49:32.739Z,14.60
2019-04-23T19:51:59.561Z,14.60
2019-04-23T19:57:19.662Z,14.50
2019-04-23T20:02:09.621Z,14.50
2019-04-23T20:04:42.821Z,14.50
2019-04-23T20:07:22.479Z,14.40
2019-04-23T20:10:03.523Z,14.30
2019-04-23T20:12:05.908Z,14.30
2019-04-23T20:14:44.342Z,14.20
2019-04-23T20:19:44.817Z,14.10
2019-04-23T20:29:50.984Z,13.70
2019-04-23T20:32:07.168Z,13.90
2019-04-23T20:35:00.250Z,13.60
2019-04-23T20:37:47.351Z,13.50
2019-04-23T20:42:40.495Z,13.40
2019-04-23T20:44:58.961Z,13.40
2019-04-23T20:47:22.793Z,13.40
2019-04-23T20:49:48.005Z,13.40
2019-04-23T20:52:20.440Z,13.40
2019-04-23T21:00:01.888Z,13.10
2019-04-23T21:15:37.415Z,12.80
2019-04-23T21:18:09.546Z,12.80
2019-04-23T21:20:30.079Z,12.70
2019-04-23T21:22:58.967Z,12.80
2019-04-23T21:25:25.471Z,12.90
2019-04-23T21:33:11.847Z,12.80
2019-04-23T21:36:02.885Z,12.70
2019-04-23T21:38:39.842Z,12.40
2019-04-23T21:41:11.128Z,12.10
2019-04-23T21:43:58.355Z,11.90
2019-04-23T21:46:15.240Z,11.90
2019-04-23T21:48:55.847Z,12.00
2019-04-23T21:51:09.500Z,12.10
2019-04-23T21:53:42.269Z,12.00
2019-04-23T21:56:09.054Z,11.90
2019-04-23T21:58:49.177Z,11.70
2019-04-23T22:01:23.735Z,11.70
2019-04-23T22:04:06.561Z,11.60
2019-04-23T22:06:25.539Z,11.50
2019-04-23T22:08:56.342Z,11.40
2019-04-23T22:11:49.537Z,11.30
2019-04-23T22:13:57.927Z,11.30
2019-04-23T22:19:56.953Z,11.40
2019-04-23T22:21:25.925Z,11.40
2019-04-23T22:23:58.286Z,11.30
2019-04-23T22:26:25.530Z,11.10
2019-04-23T22:29:00.892Z,11.00
2019-04-23T22:31:23.407Z,10.90
2019-04-23T22:33:53.335Z,10.80
2019-04-23T22:36:14.660Z,10.80
2019-04-23T22:38:49.202Z,10.70
2019-04-23T22:41:18.621Z,10.70
2019-04-23T22:44:05.207Z,10.70
2019-04-23T22:46:22.984Z,10.70
2019-04-23T22:49:14.333Z,10.60
2019-04-23T22:51:41.559Z,10.60
2019-04-23T22:56:35.121Z,10.60
2019-04-23T22:59:21.268Z,10.50
2019-04-23T23:01:50.465Z,10.50
2019-04-23T23:06:49.404Z,10.50
2019-04-23T23:09:23.202Z,10.40
2019-04-23T23:11:43.922Z,10.40
2019-04-23T23:14:16.968Z,10.40
2019-04-23T23:16:39.198Z,10.40
2019-04-23T23:19:16.900Z,10.30
2019-04-23T23:21:51.649Z,10.30
2019-04-23T23:24:07.471Z,10.30
2019-04-23T23:26:42.181Z,10.40
2019-04-23T23:29:05.806Z,10.40
2019-04-23T23:31:43.672Z,10.30
2019-04-23T23:34:06.809Z,10.30
2019-04-23T23:36:47.389Z,10.20
2019-04-23T23:39:18.106Z,10.10
2019-04-23T23:41:42.026Z,10.10
2019-04-23T23:44:28.486Z,10.00
2019-04-23T23:46:54.118Z,10.00
2019-04-23T23:49:13.893Z,10.00
2019-04-23T23:54:18.194Z,9.90
2019-04-23T23:56:39.275Z,10.00
2019-04-23T23:59:12.471Z,10.00
